OEMO2: Okemah Hwy 56

Data processed at Sun Apr 30 2017 22:49


All information presented herein is the property of the government of the United States of America and may be revised or deleted at any time without prior notice.
Dissemination of this information without the expressed written consent of the Public Affairs Office, Tulsa District U.S. Army Corps of Engineers is strictly prohibited.
These data are gathered electronically and, as presented, have not undergone any form of quality control. These data are not guaranteed to be valid or correct.
Go to home page.
Go to station list.
Go to station map.

Upstream stations:

Downstream station:
Previous Day
Next Day
Current Day
    
SHEF ID:       OEMO2     Okemah Hwy 56
STATION TYPE:  

               PRECIP     STAGE  RIV-FLOW   VOLTAGE  BAT-LOAD
                   in        ft       cfs      volt      volt
              Ccp-Rev   Ccp-Rev   Ccp-Rev   Ccp-Rev   Ccp-Rev
(US/Central)
04/30 00:00      0.00     12.70      3819     12.49     12.41
04/30 01:00      0.01     12.77      3885     12.49     12.41
04/30 02:00      0.00     12.68      3800     12.49     12.41
04/30 03:00      0.00     12.62      3744     12.49     12.41
04/30 04:00      0.00     12.58      3706     12.49     12.41
04/30 05:00      0.00     12.59      3716     12.49     12.41
04/30 06:00      0.00     12.76      3875     12.49     12.41
04/30 07:00      0.00     13.17      4260     12.49     12.41
04/30 08:00      0.00     13.46      4532     12.49     12.41
04/30 09:00      0.00     13.64      4701     12.81     12.65
04/30 10:00      0.00     13.77      4823     12.97     12.81
04/30 11:00      0.00     13.83      4879     13.60     13.29
04/30 12:00      0.01     13.75      4804     13.53     13.44
04/30 13:00      0.00     13.78      4832     13.53     13.37
04/30 14:00      0.00     13.87      4917     13.60     13.37
04/30 15:00      0.01     13.92      5003     13.53     13.29
04/30 16:00      0.00     14.05      5255     13.60     13.37
04/30 17:00      0.00     14.04      5236     13.76     13.37
04/30 18:00      0.00     14.09      5333     13.53     13.37
04/30 19:00      0.00     14.13      5410     13.29     13.29
04/30 20:00      0.00     14.20      5546     13.05     13.05
04/30 21:00      0.00     14.21      5565     12.89     12.81
04/30 22:00      0.00     14.28      ----     12.73     12.73
04/30 23:00      ----      ----      ----      ----      ----